Time;durP1;ratioP1;P1;durP2;ratioP2;P2;SDS_P1;SDS_P2;PMS_P1;PMS_P2;Temp;Humidity;BMP_temperature;BMP_pressure;BME280_temperature;BME280_humidity;BME280_pressure;Samples;Min_cycle;Max_cycle;Signal;HPM_P1;HPM_P2
2021/05/01 00:03:50;;;;;;;;;;;8.50;99.90;;;6.92;95.22;95316.56;10301924;28;2344;-85
2021/05/01 00:08:53;;;;;;;;;;;8.70;99.90;;;6.97;95.27;95324.63;10303493;28;2069;-86
2021/05/01 00:13:59;;;;;;;;;;;8.60;99.90;;;6.99;95.26;95323.28;10299187;28;2405;-86
2021/05/01 00:19:21;;;;;;;;;;;8.00;99.90;;;6.97;95.15;95314.72;10317378;28;2390;-85
2021/05/01 00:24:43;;;;;;;;;;;7.90;99.90;;;6.82;93.56;95285.28;10313514;28;2217;-86
2021/05/01 00:30:05;;;;;;;;;;;9.80;99.90;;;6.78;94.81;95295.69;10302025;28;2763;-87
2021/05/01 00:35:28;;;;;;;;;;;7.70;99.90;;;6.88;95.85;95299.47;10308747;28;2410;-86
2021/05/01 00:40:55;;;;;;;;;;;7.80;99.90;;;6.94;94.89;95291.22;10305973;28;2232;-86
2021/05/01 00:46:17;;;;;;;;;;;7.80;99.90;;;6.91;93.63;95294.41;10295568;28;2422;-85
2021/05/01 00:51:39;;;;;;;;;;;7.90;99.90;;;6.91;94.05;95304.28;10302189;28;2326;-86
2021/05/01 00:57:03;;;;;;;;;;;7.80;99.90;;;6.89;93.14;95298.41;10305453;28;2242;-87
2021/05/01 01:02:06;;;;;;;;;;;8.90;99.90;;;6.86;92.49;95290.91;10286340;28;2544;-84
2021/05/01 01:07:08;;;;;;;;;;;7.90;99.90;;;6.77;92.70;95279.91;10303371;28;2335;-87
2021/05/01 01:12:11;;;;;;;;;;;8.60;99.90;;;6.74;92.77;95275.09;10283741;28;2323;-88
2021/05/01 01:17:13;;;;;;;;;;;8.30;99.90;;;6.66;91.43;95275.59;10285622;28;2438;-86
2021/05/01 01:22:17;;;;;;;;;;;7.70;99.90;;;6.71;92.88;95272.94;10314350;28;2287;-85
2021/05/01 01:27:19;;;;;;;;;;;8.80;99.90;;;6.83;93.41;95292.25;10293896;28;2434;-87
2021/05/01 01:32:21;;;;;;;;;;;8.40;99.90;;;6.94;93.04;95282.41;10308538;28;2294;-87
2021/05/01 01:37:23;;;;;;;;;;;7.80;99.90;;;6.88;92.34;95284.25;10290380;28;2518;-85
2021/05/01 01:42:27;;;;;;;;;;;8.30;99.90;;;6.76;91.97;95297.03;10291683;28;2416;-86
2021/05/01 01:47:30;;;;;;;;;;;9.30;99.90;;;6.81;92.30;95298.88;10281379;28;2519;-87
2021/05/01 01:52:36;;;;;;;;;;;8.80;99.90;;;6.73;92.54;95302.88;10290821;28;2455;-86
2021/05/01 01:57:39;;;;;;;;;;;8.60;99.90;;;6.70;91.00;95303.41;10282075;28;1282;-85
2021/05/01 02:02:41;;;;;;;;;;;9.70;99.90;;;6.60;92.78;95303.34;10277308;28;2675;-87
2021/05/01 02:07:47;;;;;;;;;;;8.70;99.90;;;6.30;92.81;95287.94;10284359;28;2642;-87
2021/05/01 02:12:49;;;;;;;;;;;7.40;99.90;;;6.46;93.75;95290.47;10286088;28;2737;-86
2021/05/01 02:17:51;;;;;;;;;;;7.80;99.90;;;6.48;94.05;95291.00;10299208;28;2566;-85
2021/05/01 02:22:53;;;;;;;;;;;8.40;99.90;;;6.49;93.42;95292.63;10281613;28;2439;-86
2021/05/01 02:27:55;;;;;;;;;;;8.40;99.90;;;6.52;93.82;95285.16;10283836;28;2483;-87
2021/05/01 02:32:57;;;;;;;;;;;7.50;99.90;;;6.44;93.30;95273.91;10309857;28;2561;-87
2021/05/01 02:38:00;;;;;;;;;;;7.50;99.90;;;6.44;94.28;95281.13;10283829;28;2674;-86
2021/05/01 02:43:02;;;;;;;;;;;7.40;99.90;;;6.44;94.58;95283.78;10307157;28;2144;-87
2021/05/01 02:48:04;;;;;;;;;;;7.50;99.90;;;6.47;93.89;95273.38;10308033;28;2427;-87
2021/05/01 02:53:07;;;;;;;;;;;9.20;99.90;;;6.47;94.31;95272.56;10298143;28;2135;-87
2021/05/01 02:58:10;;;;;;;;;;;8.70;99.90;;;6.54;94.83;95269.66;10313683;28;2467;-86
2021/05/01 03:03:12;;;;;;;;;;;8.40;99.90;;;6.57;95.54;95288.66;10294984;28;2612;-86
2021/05/01 03:08:14;;;;;;;;;;;8.50;99.90;;;6.63;95.34;95297.50;10319550;28;2559;-87
2021/05/01 03:13:18;;;;;;;;;;;8.30;99.90;;;6.60;95.15;95281.97;10297266;28;2596;-85
2021/05/01 03:18:21;;;;;;;;;;;8.00;99.90;;;6.55;94.63;95265.94;10313774;28;2032;-86
2021/05/01 03:23:26;;;;;;;;;;;7.80;99.90;;;6.35;94.35;95246.06;10315285;28;2715;-86
2021/05/01 03:28:28;;;;;;;;;;;8.60;99.90;;;6.37;94.43;95249.31;10280912;28;2013;-87
2021/05/01 03:33:30;;;;;;;;;;;8.50;99.90;;;6.37;95.20;95245.84;10298924;28;2374;-87
2021/05/01 03:38:32;;;;;;;;;;;8.60;99.90;;;6.36;94.51;95245.03;10296451;28;2928;-87
2021/05/01 03:43:34;;;;;;;;;;;8.50;99.90;;;6.57;93.44;95234.44;10306551;28;1985;-87
2021/05/01 03:48:36;;;;;;;;;;;7.80;99.90;;;6.62;94.46;95221.91;10302565;28;1942;-86
2021/05/01 03:53:38;;;;;;;;;;;8.70;99.90;;;6.61;93.80;95222.16;10286249;28;2531;-84
2021/05/01 03:58:43;;;;;;;;;;;8.50;99.90;;;6.55;93.42;95215.19;10309202;28;2092;-85
2021/05/01 04:03:45;;;;;;;;;;;8.80;99.90;;;6.55;94.51;95220.53;10306824;28;2309;-85
2021/05/01 04:08:47;;;;;;;;;;;8.10;99.90;;;6.55;94.86;95216.00;10303671;28;2703;-86
2021/05/01 04:13:49;;;;;;;;;;;8.80;99.90;;;6.59;93.96;95217.09;10305657;28;2468;-87
2021/05/01 04:18:54;;;;;;;;;;;8.80;99.90;;;6.38;94.78;95213.53;10296192;28;1937;-85
2021/05/01 04:23:56;;;;;;;;;;;8.20;99.90;;;6.27;96.10;95208.41;10295019;28;2127;-86
2021/05/01 04:28:59;;;;;;;;;;;9.10;99.90;;;6.35;95.92;95219.38;10305206;28;2070;-85
2021/05/01 04:34:02;;;;;;;;;;;8.70;99.90;;;6.54;95.73;95229.59;10309946;28;2224;-85
2021/05/01 04:39:07;;;;;;;;;;;8.70;99.90;;;6.55;94.36;95236.56;10317149;28;2351;-87
2021/05/01 04:44:09;;;;;;;;;;;8.60;99.90;;;6.73;94.13;95239.56;10352234;28;2319;-87
2021/05/01 04:49:11;;;;;;;;;;;8.30;99.90;;;6.53;94.06;95244.03;10312472;28;2700;-84
2021/05/01 04:54:14;;;;;;;;;;;7.60;99.90;;;6.69;93.05;95248.38;10321482;28;2362;-87
2021/05/01 04:59:19;;;;;;;;;;;8.20;99.90;;;6.99;92.77;95234.28;10336886;28;2311;-86
2021/05/01 05:04:21;;;;;;;;;;;7.80;99.90;;;7.14;92.80;95258.41;10331530;28;2470;-85
2021/05/01 05:09:24;;;;;;;;;;;8.80;99.90;;;7.20;90.00;95256.53;10321750;28;2652;-84
2021/05/01 05:14:27;;;;;;;;;;;8.70;99.90;;;7.36;90.77;95230.63;10294657;28;2417;-85
2021/05/01 05:19:29;;;;;;;;;;;8.50;99.90;;;7.38;89.08;95237.31;10278212;28;2819;-87
2021/05/01 05:24:34;;;;;;;;;;;8.30;99.90;;;7.46;89.32;95220.75;10268412;28;2439;-84
2021/05/01 05:29:41;;;;;;;;;;;8.40;99.90;;;7.67;89.63;95223.41;10284870;28;2247;-85
2021/05/01 05:34:43;;;;;;;;;;;8.90;99.90;;;8.01;87.84;95221.75;10302476;28;2314;-85
2021/05/01 05:39:50;;;;;;;;;;;8.90;99.90;;;8.27;86.86;95210.97;10286035;28;2328;-87
2021/05/01 05:44:56;;;;;;;;;;;9.10;99.90;;;8.68;84.40;95216.25;10322318;28;2349;-84
2021/05/01 05:49:59;;;;;;;;;;;10.60;99.90;;;9.35;81.09;95209.41;10300337;28;2414;-85
2021/05/01 05:55:02;;;;;;;;;;;9.90;99.90;;;9.73;78.78;95203.22;10273992;28;2497;-84
2021/05/01 06:00:19;;;;;;;;;;;10.80;99.90;;;9.71;77.92;95180.41;10282552;28;2641;-85
2021/05/01 06:05:26;;;;;;;;;;;10.70;99.90;;;9.32;82.00;95178.59;10280367;28;2609;-83
2021/05/01 06:10:32;;;;;;;;;;;10.40;99.90;;;9.54;79.59;95182.69;10294208;28;2465;-86
2021/05/01 06:15:39;;;;;;;;;;;10.40;99.90;;;8.83;81.90;95167.91;10286429;28;2544;-85
2021/05/01 06:20:42;;;;;;;;;;;10.00;99.90;;;8.65;82.47;95172.84;10264502;28;2398;-86
2021/05/01 06:25:44;;;;;;;;;;;9.70;99.90;;;8.39;83.84;95164.09;10277943;28;2468;-86
2021/05/01 06:30:47;;;;;;;;;;;10.40;99.90;;;8.24;84.47;95172.19;10277279;28;2518;-86
2021/05/01 06:35:49;;;;;;;;;;;9.30;99.90;;;8.38;84.87;95159.81;10297274;28;2751;-86
2021/05/01 06:40:55;;;;;;;;;;;10.60;99.90;;;9.05;80.23;95164.84;10302155;28;2392;-86
2021/05/01 06:46:00;;;;;;;;;;;9.70;99.90;;;9.29;81.50;95162.25;10327583;28;2394;-86
2021/05/01 06:51:09;;;;;;;;;;;10.80;99.90;;;10.10;78.89;95156.13;10311945;28;2319;-84
2021/05/01 06:56:11;;;;;;;;;;;10.50;99.90;;;10.38;75.95;95176.00;10316078;28;2312;-86
2021/05/01 07:01:22;;;;;;;;;;;10.90;99.90;;;10.46;74.43;95183.44;10314511;28;2110;-85
2021/05/01 07:06:50;;;;;;;;;;;11.10;99.90;;;10.38;76.47;95175.22;10322404;28;2381;-85
2021/05/01 07:12:37;;;;;;;;;;;;;;;;;;;;;
2021/05/01 07:17:41;;;;;;;;;;;11.40;99.90;;;10.39;74.62;95160.69;10293753;28;2384;-86
2021/05/01 07:22:46;;;;;;;;;;;11.50;99.90;;;10.34;75.38;95169.59;10318851;28;2240;-86
2021/05/01 07:44:58;;;;;;;;;;;12.30;99.90;;;11.10;72.05;95138.22;10436903;28;2286;-85
2021/05/01 07:50:02;;;;;;;;;;;12.20;99.90;;;11.42;70.50;95128.56;10419668;28;2598;-84
2021/05/01 09:39:24;;;;;;;;;;;13.40;99.90;;;12.53;64.92;95060.22;10246527;28;2585;-82
2021/05/01 10:57:25;;;;;;;;;;;13.20;99.90;;;12.14;66.72;95007.69;10359396;28;2149;-83
2021/05/01 11:15:59;;;;;;;;;;;13.40;99.90;;;12.73;65.10;94988.91;10143947;29;2592;-85
2021/05/01 12:21:14;;;;;;;;;;;14.00;99.90;;;13.05;62.83;94969.75;9936238;29;2425;-85
2021/05/01 12:38:39;;;;;;;;;;;13.70;99.90;;;12.57;65.52;94948.00;10229916;29;2458;-86
2021/05/01 12:55:47;;;;;;;;;;;13.40;99.90;;;12.18;67.94;94915.19;10329516;28;2585;-85
2021/05/01 13:01:23;;;;;;;;;;;13.30;99.90;;;11.61;71.59;94900.53;10375638;28;2654;-84
2021/05/01 13:18:19;;;;;;;;;;;12.30;99.90;;;10.88;78.75;94879.88;10366533;28;2375;-85
2021/05/01 13:41:21;;;;;;;;;;;;;;;;;;;;;
2021/05/01 13:46:51;;;;;;;;;;;12.30;99.90;;;11.01;76.55;94892.56;10254269;28;2633;-86
2021/05/01 13:58:33;;;;;;;;;;;;;;;;;;;;;
2021/05/01 14:15:45;;;;;;;;;;;11.90;99.90;;;10.79;76.79;94883.25;10377336;28;2210;-84
2021/05/01 14:26:58;;;;;;;;;;;11.70;99.90;;;10.70;76.90;94870.81;10358744;28;2282;-87
2021/05/01 14:44:20;;;;;;;;;;;11.80;99.90;;;10.53;78.36;94857.94;10285167;28;2304;-84
2021/05/01 14:50:29;;;;;;;;;;;;;;;;;;;;;
2021/05/01 15:19:44;;;;;;;;;;;11.60;99.90;;;10.82;77.09;94836.97;10334830;28;2604;-85
2021/05/01 15:37:27;;;;;;;;;;;11.80;99.90;;;10.49;78.60;94833.53;10234542;28;2413;-87
2021/05/01 15:55:07;;;;;;;;;;;11.50;99.90;;;10.38;79.77;94815.22;10197086;29;2345;-88
2021/05/01 16:01:03;;;;;;;;;;;;;;;;;;;;;
2021/05/01 16:06:41;;;;;;;;;;;11.40;99.90;;;10.20;80.76;94804.19;10359090;28;2368;-87
2021/05/01 16:12:22;;;;;;;;;;;11.30;99.90;;;10.02;81.93;94800.44;10384823;28;2428;-88
2021/05/01 16:23:48;;;;;;;;;;;11.00;99.90;;;9.63;84.45;94773.97;10371670;28;2441;-87
2021/05/01 16:29:09;;;;;;;;;;;;;;;;;;;;;
2021/05/01 16:34:19;;;;;;;;;;;10.80;99.90;;;9.50;85.51;94776.59;10393592;28;2323;-84
2021/05/01 16:51:34;;;;;;;;;;;;;;;;;;;;;
2021/05/01 16:56:58;;;;;;;;;;;10.70;99.90;;;9.47;89.08;94740.38;10372060;28;2317;-86
2021/05/01 17:02:00;;;;;;;;;;;10.60;99.90;;;9.38;89.78;94747.50;10351717;28;2396;-87
2021/05/01 17:07:02;;;;;;;;;;;10.50;99.90;;;9.28;91.02;94761.06;10368273;28;2407;-90
2021/05/01 17:12:06;;;;;;;;;;;10.40;99.90;;;9.09;92.94;94758.34;10374373;28;2264;-88
2021/05/01 17:17:08;;;;;;;;;;;10.30;99.90;;;9.05;94.47;94757.38;10382892;28;2374;-84
2021/05/01 17:22:11;;;;;;;;;;;10.20;99.90;;;9.01;95.05;94751.75;10380039;28;2404;-86
2021/05/01 17:27:15;;;;;;;;;;;10.10;99.90;;;8.94;95.62;94756.69;10378557;28;2372;-83
2021/05/01 17:32:17;;;;;;;;;;;10.00;99.90;;;8.85;96.38;94753.06;10349196;28;2395;-84
2021/05/01 17:37:19;;;;;;;;;;;9.90;99.90;;;8.76;97.20;94755.56;10395303;28;2390;-82
2021/05/01 17:42:20;;;;;;;;;;;10.10;99.90;;;8.73;98.21;94731.25;10363584;28;2300;-83
2021/05/01 17:47:22;;;;;;;;;;;9.80;99.90;;;8.62;98.63;94739.38;10356923;28;2223;-83
2021/05/01 17:52:24;;;;;;;;;;;9.70;99.90;;;8.58;99.41;94727.63;10367113;28;2319;-84
2021/05/01 17:57:28;;;;;;;;;;;9.70;99.90;;;8.51;99.43;94735.22;10356487;28;1994;-85
2021/05/01 18:02:37;;;;;;;;;;;10.20;99.90;;;8.46;99.73;94740.66;10371693;28;2431;-85
2021/05/01 18:07:43;;;;;;;;;;;9.50;99.90;;;8.34;99.59;94733.00;10367473;28;2327;-87
2021/05/01 18:12:51;;;;;;;;;;;9.50;99.90;;;8.31;100.00;94738.09;10373919;28;2407;-86
2021/05/01 18:18:05;;;;;;;;;;;9.40;99.90;;;8.27;100.00;94729.84;10370751;28;1745;-85
2021/05/01 18:23:13;;;;;;;;;;;9.40;99.90;;;8.18;99.34;94722.72;10377655;28;2442;-87
2021/05/01 18:33:34;;;;;;;;;;;9.20;99.90;;;8.17;99.98;94729.16;10376011;28;2265;-86
2021/05/01 18:38:39;;;;;;;;;;;9.20;99.90;;;8.23;100.00;94720.78;10372193;28;2398;-86
2021/05/01 18:43:43;;;;;;;;;;;9.20;99.90;;;8.24;100.00;94726.94;10356032;28;2237;-86
2021/05/01 18:48:56;;;;;;;;;;;9.30;99.90;;;8.13;99.65;94716.31;10366419;28;2331;-86
2021/05/01 18:54:01;;;;;;;;;;;9.20;99.90;;;8.10;100.00;94716.91;10373797;28;2162;-86
2021/05/01 18:59:04;;;;;;;;;;;9.20;99.90;;;8.07;99.95;94712.09;10360801;28;2285;-84
2021/05/01 19:04:09;;;;;;;;;;;10.60;99.90;;;8.14;100.00;94722.47;10368154;28;2200;-85
2021/05/01 19:09:16;;;;;;;;;;;9.20;99.90;;;7.98;100.00;94721.84;10358141;28;2279;-85
2021/05/01 19:14:21;;;;;;;;;;;9.10;99.90;;;7.95;100.00;94698.34;10362998;28;2397;-86
2021/05/01 19:19:23;;;;;;;;;;;9.00;99.90;;;7.93;100.00;94699.69;10381028;28;2371;-85
2021/05/01 19:24:25;;;;;;;;;;;9.00;99.90;;;7.89;100.00;94704.81;10387868;28;2241;-85
2021/05/01 19:29:27;;;;;;;;;;;8.90;99.90;;;7.90;100.00;94700.25;10383111;28;2324;-85
2021/05/01 19:34:28;;;;;;;;;;;9.00;99.90;;;7.78;100.00;94697.97;10370324;28;2321;-83
2021/05/01 19:39:30;;;;;;;;;;;8.80;99.90;;;7.84;100.00;94686.94;10386944;28;2320;-88
2021/05/01 19:44:35;;;;;;;;;;;9.00;99.90;;;7.84;100.00;94691.47;10363572;28;2063;-86
2021/05/01 19:49:37;;;;;;;;;;;8.90;99.90;;;7.76;100.00;94695.56;10375379;28;2337;-85
2021/05/01 19:54:39;;;;;;;;;;;8.90;99.90;;;7.78;100.00;94703.31;10394162;28;2264;-86
2021/05/01 19:59:44;;;;;;;;;;;8.90;99.90;;;7.78;100.00;94714.81;10397648;28;2422;-85
2021/05/01 20:04:55;;;;;;;;;;;8.80;99.90;;;7.76;100.00;94705.44;10373855;28;2343;-84
2021/05/01 20:09:58;;;;;;;;;;;8.80;99.90;;;7.78;100.00;94703.31;10366618;28;2426;-86
2021/05/01 20:15:00;;;;;;;;;;;8.80;99.90;;;7.76;100.00;94702.78;10375226;28;2816;-84
2021/05/01 20:20:04;;;;;;;;;;;8.80;99.90;;;7.74;100.00;94710.28;10376258;28;2736;-84
2021/05/01 20:25:06;;;;;;;;;;;8.80;99.90;;;7.70;100.00;94690.53;10372764;28;2517;-82
2021/05/01 20:30:07;;;;;;;;;;;8.80;99.90;;;7.80;100.00;94693.13;10371622;28;2431;-82
2021/05/01 20:35:09;;;;;;;;;;;9.00;99.90;;;7.73;100.00;94684.63;10369055;28;2474;-86
2021/05/01 20:40:11;;;;;;;;;;;8.80;99.90;;;7.69;100.00;94678.22;10355407;28;2360;-85
2021/05/01 20:45:16;;;;;;;;;;;8.70;99.90;;;7.61;100.00;94671.63;10367595;28;2472;-83
2021/05/01 20:50:44;;;;;;;;;;;8.60;99.90;;;7.55;100.00;94670.06;10368776;28;2248;-82
2021/05/01 21:01:39;;;;;;;;;;;8.50;99.90;;;7.46;100.00;94669.09;10353049;28;2232;-83
2021/05/01 21:07:05;;;;;;;;;;;9.00;99.90;;;7.46;100.00;94655.72;10350688;28;2350;-84
2021/05/01 21:12:13;;;;;;;;;;;8.90;99.90;;;7.38;100.00;94657.13;10367805;28;2364;-83
2021/05/01 21:17:15;;;;;;;;;;;9.10;99.90;;;7.25;100.00;94652.41;10350069;28;2535;-83
2021/05/01 21:22:18;;;;;;;;;;;8.60;99.90;;;7.19;100.00;94653.50;10365442;28;2270;-85
2021/05/01 21:27:21;;;;;;;;;;;9.00;99.90;;;7.23;100.00;94651.88;10345225;28;2383;-85
2021/05/01 21:32:22;;;;;;;;;;;8.70;99.90;;;7.14;100.00;94645.56;10366584;28;2454;-85
2021/05/01 21:37:24;;;;;;;;;;;8.60;99.90;;;7.05;100.00;94638.13;10356727;28;2658;-85
2021/05/01 21:42:26;;;;;;;;;;;8.10;99.90;;;7.03;100.00;94644.84;10365121;28;2371;-85
2021/05/01 21:47:28;;;;;;;;;;;8.00;99.90;;;7.00;100.00;94634.72;10351352;28;2268;-86
2021/05/01 21:52:30;;;;;;;;;;;8.90;99.90;;;6.96;100.00;94637.13;10355985;28;2326;-85
2021/05/01 21:57:32;;;;;;;;;;;8.00;99.90;;;6.96;100.00;94645.16;10358276;28;2339;-84
2021/05/01 22:02:34;;;;;;;;;;;8.10;99.90;;;6.95;100.00;94653.44;10364886;28;2506;-86
2021/05/01 22:07:35;;;;;;;;;;;8.70;99.90;;;6.94;100.00;94663.34;10352723;28;2706;-83
2021/05/01 22:12:37;;;;;;;;;;;8.90;99.90;;;6.93;100.00;94672.41;10380169;28;2453;-85
2021/05/01 22:17:40;;;;;;;;;;;8.50;99.90;;;6.93;100.00;94672.41;10354340;28;2257;-86
2021/05/01 22:22:53;;;;;;;;;;;9.00;99.90;;;6.89;100.00;94684.75;10400554;28;2680;-83
2021/05/01 22:27:55;;;;;;;;;;;8.00;99.90;;;6.92;100.00;94683.38;10364430;28;2221;-82
2021/05/01 22:32:56;;;;;;;;;;;8.80;99.90;;;6.83;100.00;94693.84;10366532;28;1672;-86
2021/05/01 22:37:58;;;;;;;;;;;8.20;99.90;;;6.88;100.00;94695.69;10383402;28;2308;-86
2021/05/01 22:43:00;;;;;;;;;;;8.90;99.90;;;6.82;100.00;94704.81;10381139;28;2327;-84
2021/05/01 22:48:03;;;;;;;;;;;7.90;99.90;;;6.80;100.00;94705.06;10392526;28;2324;-86
2021/05/01 22:53:07;;;;;;;;;;;8.30;99.90;;;6.75;100.00;94718.47;10359823;28;2416;-85
2021/05/01 22:58:09;;;;;;;;;;;8.20;99.90;;;6.68;100.00;94728.63;10382278;28;2391;-84
2021/05/01 23:03:10;;;;;;;;;;;7.70;99.90;;;6.62;100.00;94740.44;10351274;28;2288;-86
2021/05/01 23:08:12;;;;;;;;;;;7.60;99.90;;;6.52;100.00;94751.94;10384819;28;2497;-87
2021/05/01 23:13:14;;;;;;;;;;;7.60;99.90;;;6.39;100.00;94755.19;10377491;28;2641;-84
2021/05/01 23:18:16;;;;;;;;;;;7.50;99.90;;;6.35;100.00;94757.59;10414287;28;2271;-85
2021/05/01 23:23:18;;;;;;;;;;;7.40;99.90;;;6.38;100.00;94759.72;10387691;28;2626;-87
2021/05/01 23:28:22;;;;;;;;;;;8.10;99.90;;;6.31;100.00;94769.91;10407796;28;2142;-86
2021/05/01 23:33:23;;;;;;;;;;;7.30;99.90;;;6.24;100.00;94766.72;10412431;28;2256;-83
2021/05/01 23:38:25;;;;;;;;;;;7.30;99.90;;;6.21;100.00;94762.72;10414336;28;2225;-85
2021/05/01 23:43:28;;;;;;;;;;;8.30;99.90;;;6.17;100.00;94775.00;10400393;28;2391;-85
2021/05/01 23:48:30;;;;;;;;;;;8.70;99.90;;;6.09;100.00;94769.41;10366644;28;2269;-86
2021/05/01 23:53:32;;;;;;;;;;;8.40;99.90;;;6.10;100.00;94779.78;10373205;28;2332;-87
2021/05/01 23:58:34;;;;;;;;;;;7.10;99.90;;;6.09;100.00;94796.88;10387317;28;2375;-83
